This is the latest recevied weather packets stored in our database for station/object OE-11140. If no packets are shown the sender has not sent any weather packets the latest 10 day(s).
| Time | Temp. | Humidity | Pressure | Rain* | Wind** | Luminosity | Snow |
|---|---|---|---|---|---|---|---|
| 1787866889 | 20.56° C | 75% | 1013 hPa | 0 mm | - | 0 W/m² | - |
| 1787866515 | 20.56° C | 76% | 1013.1 hPa | 0 mm | - | 0 W/m² | - |
| 1787865916 | 20° C | 79% | 1013.3 hPa | 0 mm | - | 0 W/m² | - |
| 1787865090 | 18.89° C | 86% | 1013.4 hPa | 0 mm | - | 0 W/m² | - |
| 1787864715 | 19.44° C | 82% | 1013.3 hPa | 0 mm | - | 0 W/m² | - |
| 1787864115 | 20.56° C | 78% | 1013.1 hPa | 0 mm | - | 0 W/m² | - |
| 1787863289 | 20° C | 82% | 1013.3 hPa | 0 mm | - | 0 W/m² | - |
| 1787862916 | 20.56° C | 79% | 1013.2 hPa | 0 mm | - | 0 W/m² | - |
| 1787862316 | 20.56° C | 80% | 1013.2 hPa | 0 mm | - | 0 W/m² | - |
| 1787861489 | 20° C | 82% | 1013.3 hPa | 0 mm | - | 0 W/m² | - |
| 1787861116 | 20.56° C | 79% | 1013.3 hPa | 0 mm | - | 0 W/m² | - |
| 1787860516 | 20.56° C | 78% | 1013 hPa | 0 mm | - | 0 W/m² | - |
| 1787859689 | 20.56° C | 81% | 1013 hPa | 0 mm | - | 0 W/m² | - |
| 1787859316 | 20.56° C | 80% | 1012.9 hPa | 0 mm | - | 0 W/m² | - |
| 1787858716 | 20.56° C | 81% | 1012.7 hPa | 0 mm | - | 0 W/m² | - |
| 1787857889 | 21.11° C | 80% | 1012.7 hPa | 0 mm | - | 0 W/m² | - |
| 1787857516 | 21.11° C | 81% | 1012.7 hPa | 0 mm | - | 0 W/m² | - |
| 1787856916 | 21.11° C | 81% | 1012.6 hPa | 0 mm | - | 0 W/m² | - |
| 1787856089 | 21.67° C | 80% | 1012.6 hPa | 0 mm | - | 0 W/m² | - |
| 1787855715 | 21.11° C | 80% | 1012.4 hPa | 0 mm | - | 0 W/m² | - |
| 1787855116 | 22.22° C | 78% | 1012.3 hPa | 0 mm | - | 0 W/m² | - |
| 1787854289 | 22.22° C | 77% | 1012.1 hPa | 0 mm | - | 0 W/m² | - |
| 1787853916 | 22.22° C | 77% | 1011.8 hPa | 0 mm | - | 7 W/m² | - |
| 1787852728 | 23.89° C | 73% | 1011.3 hPa | 0 mm | - | 27 W/m² | - |
| 1787852115 | 24.44° C | 74% | 1011.1 hPa | 0 mm | - | 33 W/m² | - |
* Rain latest hour (hover to see other rain measurements)
** Current wind speed in m/s (hover to see current wind gust speed)